KMLU

Monroe Regional Airport

Monroe, Louisiana, USA
KMLU 252322Z 2600/2624 32008KT P6SM VCSH OVC080 TEMPO 2600/2604 5SM -SHRA BR OVC030 FM260600 30010KT P6SM OVC015 FM261500 30010KT P6SM OVC030 FM262100 33008KT P6SM BKN040
Issued Valid From Valid To
Apr-25 @ 23:22 UTC
(4 hours ago)
Apr-26 @ 00:00 UTC
(4 hours ago)
Apr-27 @ 00:00 UTC
(in 20 hours)
Apr-26 @ 00:00 to Apr-26 @ 06:00
KMLU 252322Z 2600/2624 32008KT P6SM VCSH OVC080
Wind Visibility Clouds
320° at 8 knots Greater than 6 miles
  • Overcast at 8,000' AGL
Temporary Apr-26 @ 00:00 to Apr-26 @ 04:00
TEMPO 2600/2604 5SM -SHRA BR OVC030
Visibility Clouds Conditions
5 miles
  • Overcast at 3,000' AGL
  • Light Rain
  • Mist
From Apr-26 @ 06:00 to Apr-26 @ 15:00
FM260600 30010KT P6SM OVC015
Wind Visibility Clouds
300° at 10 knots Greater than 6 miles
  • Overcast at 1,500' AGL
From Apr-26 @ 15:00 to Apr-26 @ 21:00
FM261500 30010KT P6SM OVC030
Wind Visibility Clouds
300° at 10 knots Greater than 6 miles
  • Overcast at 3,000' AGL
From Apr-26 @ 21:00 to Apr-27 @ 00:00
FM262100 33008KT P6SM BKN040
Wind Visibility Clouds
330° at 8 knots Greater than 6 miles
  • Broken at 4,000' AGL
KMLU 252322Z 2600/2624 32008KT P6SM VCSH OVC080 TEMPO 2600/2604 5SM -SHRA BR OVC030 FM260600 30010KT P6SM OVC015 FM261500 30010KT P6SM OVC030 FM262100 33008KT P6SM BKN040
Issued Apr-25 @ 23:22 UTC
(4 hours ago)
Valid From Apr-26 @ 00:00 UTC
(4 hours ago)
Valid To Apr-27 @ 00:00 UTC
(in 20 hours)
Apr-26 @ 00:00 - Apr-26 @ 06:00
Wind Visibility
320° at 8 knots Greater than 6 miles
Clouds
  • Overcast at 8,000' AGL
Temporary Apr-26 @ 00:00 - Apr-26 @ 04:00
Clouds
  • Overcast at 3,000' AGL
Conditions
  • Light Rain
  • Mist
From Apr-26 @ 06:00 - Apr-26 @ 15:00
Wind Visibility
300° at 10 knots Greater than 6 miles
Clouds
  • Overcast at 1,500' AGL
From Apr-26 @ 15:00 - Apr-26 @ 21:00
Wind Visibility
300° at 10 knots Greater than 6 miles
Clouds
  • Overcast at 3,000' AGL
From Apr-26 @ 21:00 - Apr-27 @ 00:00
Wind Visibility
330° at 8 knots Greater than 6 miles
Clouds
  • Broken at 4,000' AGL